createdAt,value
2023-03-29T00:00:31.654Z,0.70
2023-03-29T00:02:59.502Z,0.70
2023-03-29T00:05:26.860Z,1.10
2023-03-29T00:07:54.310Z,0.60
2023-03-29T00:10:24.135Z,0.90
2023-03-29T00:12:52.756Z,1.00
2023-03-29T00:15:19.969Z,0.90
2023-03-29T00:17:48.894Z,0.80
2023-03-29T00:20:16.645Z,0.40
2023-03-29T00:22:49.581Z,0.70
2023-03-29T00:25:16.523Z,1.00
2023-03-29T00:27:43.622Z,0.70
2023-03-29T00:30:11.290Z,0.70
2023-03-29T00:32:38.560Z,0.60
2023-03-29T00:35:06.617Z,0.60
2023-03-29T00:37:34.811Z,0.90
2023-03-29T00:40:01.678Z,0.80
2023-03-29T00:42:28.836Z,0.70
2023-03-29T00:45:06.314Z,0.60
2023-03-29T00:47:44.842Z,0.90
2023-03-29T00:50:18.554Z,0.70
2023-03-29T00:52:48.677Z,0.60
2023-03-29T00:55:19.283Z,0.80
2023-03-29T00:57:46.759Z,0.80
2023-03-29T01:00:22.930Z,0.70
2023-03-29T01:02:54.488Z,0.80
2023-03-29T01:05:25.318Z,1.20
2023-03-29T01:08:03.789Z,1.20
2023-03-29T01:10:39.071Z,0.70
2023-03-29T01:13:13.916Z,0.60
2023-03-29T01:15:42.274Z,0.60
2023-03-29T01:18:09.672Z,0.70
2023-03-29T01:20:57.064Z,0.90
2023-03-29T01:24:07.058Z,0.80
2023-03-29T01:27:02.392Z,0.50
2023-03-29T01:29:32.869Z,0.80
2023-03-29T01:32:03.731Z,0.70
2023-03-29T01:34:35.757Z,0.70
2023-03-29T01:37:19.051Z,0.70
2023-03-29T01:39:46.118Z,0.90
2023-03-29T01:42:37.755Z,0.50
2023-03-29T01:45:19.755Z,0.60
2023-03-29T01:48:04.953Z,0.60
2023-03-29T01:50:41.531Z,0.70
2023-03-29T01:53:30.791Z,0.70
2023-03-29T01:58:37.060Z,1.00
2023-03-29T02:01:10.003Z,0.60
2023-03-29T02:03:42.678Z,0.60
2023-03-29T02:06:13.479Z,0.60
2023-03-29T02:08:40.929Z,0.60
2023-03-29T02:11:08.697Z,0.50
2023-03-29T02:13:36.451Z,0.70
2023-03-29T02:16:08.030Z,0.40
2023-03-29T02:18:35.670Z,0.80
2023-03-29T02:21:18.310Z,0.70
2023-03-29T02:23:46.090Z,0.80
2023-03-29T02:26:14.463Z,0.80
2023-03-29T02:28:42.022Z,0.60
2023-03-29T02:31:25.386Z,0.60
2023-03-29T02:34:20.239Z,0.60
2023-03-29T02:36:54.981Z,0.70
2023-03-29T02:39:29.719Z,0.60
2023-03-29T02:41:58.599Z,0.80
2023-03-29T02:44:27.192Z,0.70
2023-03-29T02:46:57.063Z,0.90
2023-03-29T02:49:24.281Z,0.80
2023-03-29T02:51:56.535Z,0.60
2023-03-29T02:54:29.939Z,0.80
2023-03-29T02:57:06.500Z,1.00
2023-03-29T02:59:33.781Z,0.80
2023-03-29T03:02:01.110Z,0.60
2023-03-29T03:04:29.610Z,0.70
2023-03-29T03:06:57.620Z,0.70
2023-03-29T03:09:24.584Z,0.70
2023-03-29T03:11:53.861Z,0.70
2023-03-29T03:14:23.059Z,0.60
2023-03-29T03:16:50.557Z,0.70
2023-03-29T03:19:21.887Z,0.70
2023-03-29T03:21:51.188Z,0.60
2023-03-29T03:24:18.510Z,0.60
2023-03-29T03:26:50.062Z,0.70
2023-03-29T03:29:19.256Z,0.70
2023-03-29T03:32:05.894Z,0.60
2023-03-29T03:34:51.827Z,0.80
2023-03-29T03:37:22.646Z,0.70
2023-03-29T03:39:49.701Z,0.80
2023-03-29T03:42:17.105Z,0.70
2023-03-29T03:44:46.744Z,0.90
2023-03-29T03:47:32.966Z,0.70
2023-03-29T03:50:11.826Z,0.90
2023-03-29T03:52:38.856Z,1.00
2023-03-29T03:55:08.268Z,1.00
2023-03-29T03:57:44.962Z,0.90
2023-03-29T04:00:19.519Z,1.40
2023-03-29T04:02:54.623Z,0.90
2023-03-29T04:05:21.982Z,0.70
2023-03-29T04:07:49.546Z,0.40
2023-03-29T04:10:44.767Z,0.70
2023-03-29T04:13:17.320Z,0.60
2023-03-29T04:16:08.676Z,0.80
2023-03-29T04:18:35.876Z,0.70
2023-03-29T04:21:03.377Z,0.80
2023-03-29T04:23:32.671Z,0.70
2023-03-29T04:25:59.507Z,0.70
2023-03-29T04:29:05.285Z,0.90
2023-03-29T04:31:40.191Z,0.70
2023-03-29T04:34:26.431Z,0.70
2023-03-29T04:36:54.480Z,0.90
2023-03-29T04:39:34.070Z,0.80
2023-03-29T04:42:06.584Z,0.80
2023-03-29T04:44:35.763Z,1.00
2023-03-29T04:47:04.881Z,1.00
2023-03-29T04:49:47.308Z,0.90
2023-03-29T04:52:22.392Z,1.00
2023-03-29T04:54:53.905Z,0.90
2023-03-29T04:57:25.475Z,0.80
2023-03-29T05:00:00.544Z,1.10
2023-03-29T05:03:04.544Z,0.80
2023-03-29T05:05:33.504Z,1.00
2023-03-29T05:10:43.529Z,0.90
2023-03-29T05:13:11.258Z,0.80
2023-03-29T05:15:43.066Z,1.10
2023-03-29T05:18:11.110Z,1.10
2023-03-29T05:20:38.846Z,0.90
2023-03-29T05:23:06.207Z,0.60
2023-03-29T05:26:08.212Z,0.70
2023-03-29T05:28:36.682Z,0.80
2023-03-29T05:31:05.094Z,0.80
2023-03-29T05:33:35.713Z,0.70
2023-03-29T05:36:06.611Z,0.90
2023-03-29T05:38:34.945Z,0.80
2023-03-29T05:41:03.536Z,0.80
2023-03-29T05:43:53.445Z,0.70
2023-03-29T05:46:23.672Z,0.90
2023-03-29T05:48:54.114Z,0.80
2023-03-29T05:51:24.525Z,0.60
2023-03-29T05:53:53.908Z,0.80
2023-03-29T05:56:22.597Z,0.90
2023-03-29T05:58:51.396Z,0.80
2023-03-29T06:01:19.988Z,0.90
2023-03-29T06:03:56.463Z,0.70
2023-03-29T06:06:27.577Z,0.90
2023-03-29T06:08:55.044Z,0.80
2023-03-29T06:11:35.108Z,1.20
2023-03-29T06:14:07.943Z,0.80
2023-03-29T06:16:42.680Z,1.00
2023-03-29T06:19:10.973Z,0.80
2023-03-29T06:21:38.114Z,0.80
2023-03-29T06:24:07.113Z,0.90
2023-03-29T06:26:39.272Z,1.20
2023-03-29T06:29:06.526Z,1.20
2023-03-29T06:31:36.268Z,0.90
2023-03-29T06:34:04.864Z,0.70
2023-03-29T06:36:51.319Z,0.70
2023-03-29T06:39:21.628Z,0.70
2023-03-29T06:42:20.682Z,0.80
2023-03-29T06:45:17.845Z,0.80
2023-03-29T06:47:48.439Z,0.90
2023-03-29T06:50:17.439Z,0.80
2023-03-29T06:53:03.000Z,0.70
2023-03-29T06:55:31.720Z,0.60
2023-03-29T06:58:02.288Z,0.90
2023-03-29T07:00:30.861Z,0.90
2023-03-29T07:03:08.254Z,0.80
2023-03-29T07:05:41.184Z,0.80
2023-03-29T07:08:10.267Z,0.80
2023-03-29T07:10:59.551Z,1.20
2023-03-29T07:13:30.668Z,0.60
2023-03-29T07:15:58.570Z,0.90
2023-03-29T07:18:59.547Z,0.70
2023-03-29T07:21:47.517Z,0.90
2023-03-29T07:24:15.846Z,0.80
2023-03-29T07:26:52.403Z,0.80
2023-03-29T07:29:23.703Z,1.40
2023-03-29T07:31:50.689Z,1.10
2023-03-29T07:34:44.454Z,0.80
2023-03-29T07:37:25.222Z,1.00
2023-03-29T07:39:56.941Z,1.20
2023-03-29T07:42:33.642Z,0.90
2023-03-29T07:45:01.607Z,0.80
2023-03-29T07:47:33.148Z,0.80
2023-03-29T07:50:00.321Z,0.80
2023-03-29T07:52:36.520Z,1.10
2023-03-29T07:55:06.425Z,1.30
2023-03-29T07:57:53.788Z,1.20
2023-03-29T08:00:22.407Z,1.00
2023-03-29T08:05:37.739Z,1.00
2023-03-29T08:08:10.738Z,1.30
2023-03-29T08:10:50.724Z,1.50
2023-03-29T08:13:33.688Z,1.30
2023-03-29T08:16:21.103Z,1.10
2023-03-29T08:18:56.037Z,0.70
2023-03-29T08:21:26.574Z,1.00
2023-03-29T08:23:53.807Z,1.10
2023-03-29T08:26:38.777Z,1.10
2023-03-29T08:29:06.887Z,1.00
2023-03-29T08:31:33.881Z,1.20
2023-03-29T08:34:01.217Z,1.10
2023-03-29T08:37:06.635Z,1.20
2023-03-29T08:39:41.562Z,1.10
2023-03-29T08:42:49.950Z,1.30
2023-03-29T08:45:43.662Z,1.00
2023-03-29T08:48:23.418Z,1.10
2023-03-29T08:50:56.471Z,1.30
2023-03-29T08:53:45.312Z,1.40
2023-03-29T08:56:26.279Z,1.20
2023-03-29T08:59:29.470Z,1.30
2023-03-29T09:01:58.161Z,1.20
2023-03-29T09:04:28.079Z,1.20
2023-03-29T09:07:15.691Z,1.20
2023-03-29T09:09:46.434Z,1.20
2023-03-29T09:12:56.123Z,1.10
2023-03-29T09:15:31.180Z,0.90
2023-03-29T09:18:22.158Z,1.30
2023-03-29T09:21:12.010Z,1.10
2023-03-29T09:23:55.877Z,1.40
2023-03-29T09:27:00.022Z,0.90
2023-03-29T09:29:46.470Z,1.10
2023-03-29T09:32:26.760Z,1.30
2023-03-29T09:35:04.905Z,1.10
2023-03-29T09:37:37.251Z,1.00
2023-03-29T09:40:11.418Z,1.40
2023-03-29T09:42:49.577Z,1.20
2023-03-29T09:45:16.565Z,1.20
2023-03-29T09:48:02.851Z,1.00
2023-03-29T09:50:43.160Z,1.10
2023-03-29T09:53:10.735Z,1.10
2023-03-29T09:55:41.961Z,0.90
2023-03-29T09:58:27.736Z,1.10
2023-03-29T10:01:01.249Z,1.20
2023-03-29T10:03:33.716Z,1.00
2023-03-29T10:06:09.760Z,1.00
2023-03-29T10:08:40.786Z,1.10
2023-03-29T10:11:12.891Z,1.30
2023-03-29T10:13:45.033Z,1.20
2023-03-29T10:16:36.392Z,1.50
2023-03-29T10:19:15.414Z,1.10
2023-03-29T10:21:53.979Z,1.30
2023-03-29T10:24:23.081Z,1.10
2023-03-29T10:26:57.749Z,1.00
2023-03-29T10:29:27.945Z,1.00
2023-03-29T10:31:55.998Z,1.20
2023-03-29T10:34:26.017Z,1.10
2023-03-29T10:36:59.643Z,1.00
2023-03-29T10:39:28.795Z,1.10
2023-03-29T10:41:56.100Z,1.40
2023-03-29T10:44:32.868Z,0.90
2023-03-29T10:47:20.421Z,1.10
2023-03-29T10:49:56.957Z,1.00
2023-03-29T10:52:24.701Z,1.10
2023-03-29T10:54:52.893Z,1.10
2023-03-29T10:57:29.564Z,0.90
2023-03-29T11:00:06.957Z,1.00
2023-03-29T11:02:40.786Z,1.10
2023-03-29T11:05:45.196Z,0.90
2023-03-29T11:08:20.842Z,1.20
2023-03-29T11:11:04.180Z,1.20
2023-03-29T11:14:00.043Z,1.00
2023-03-29T11:16:39.573Z,1.00
2023-03-29T11:19:51.697Z,0.90
2023-03-29T11:22:27.932Z,0.90
2023-03-29T11:25:10.736Z,1.20
2023-03-29T11:27:42.045Z,0.90
2023-03-29T11:30:21.725Z,0.70
2023-03-29T11:32:57.216Z,1.10
2023-03-29T11:35:39.145Z,1.20
2023-03-29T11:38:28.153Z,0.70
2023-03-29T11:41:02.926Z,0.90
2023-03-29T11:43:36.044Z,0.90
2023-03-29T11:46:09.446Z,1.00
2023-03-29T11:48:40.149Z,0.90
2023-03-29T11:51:29.826Z,0.80
2023-03-29T11:54:22.413Z,0.70
2023-03-29T11:57:02.843Z,1.00
2023-03-29T11:59:37.192Z,0.70
2023-03-29T12:02:20.227Z,0.80
2023-03-29T12:04:53.122Z,1.20
2023-03-29T12:07:20.439Z,0.80
2023-03-29T12:09:59.044Z,0.80
2023-03-29T12:12:42.512Z,0.80
2023-03-29T12:15:20.373Z,0.70
2023-03-29T12:18:22.388Z,0.60
2023-03-29T12:20:53.632Z,0.80
2023-03-29T12:23:20.755Z,0.80
2023-03-29T12:25:52.260Z,0.90
2023-03-29T12:29:01.141Z,0.80
2023-03-29T12:31:36.434Z,0.80
2023-03-29T12:34:23.786Z,0.80
2023-03-29T12:37:11.485Z,0.70
2023-03-29T12:40:03.412Z,0.90
2023-03-29T12:43:20.606Z,0.70
2023-03-29T12:46:15.120Z,0.90
2023-03-29T12:48:42.495Z,0.90
2023-03-29T12:51:20.240Z,0.80
2023-03-29T12:53:51.747Z,0.80
2023-03-29T12:56:36.774Z,0.90
2023-03-29T12:59:15.807Z,0.70
2023-03-29T13:01:59.122Z,0.70
2023-03-29T13:04:51.241Z,0.80
2023-03-29T13:07:26.518Z,0.60
2023-03-29T13:09:54.618Z,0.80
2023-03-29T13:12:23.034Z,0.80
2023-03-29T13:15:17.184Z,0.80
2023-03-29T13:18:06.288Z,0.70
2023-03-29T13:20:55.896Z,0.80
2023-03-29T13:26:06.327Z,0.80
2023-03-29T13:29:12.430Z,1.00
2023-03-29T13:31:44.465Z,0.70
2023-03-29T13:34:41.479Z,0.70
2023-03-29T13:37:59.220Z,0.80
2023-03-29T13:40:44.422Z,0.80
2023-03-29T13:43:19.286Z,0.80
2023-03-29T13:45:57.464Z,0.90
2023-03-29T13:48:30.795Z,0.80
2023-03-29T13:51:18.990Z,0.70
2023-03-29T13:54:35.913Z,1.00
2023-03-29T13:57:35.052Z,0.60
2023-03-29T14:00:12.038Z,0.80
2023-03-29T14:02:49.598Z,0.80
2023-03-29T14:05:18.570Z,0.90
2023-03-29T14:07:49.037Z,1.10
2023-03-29T14:10:19.797Z,0.80
2023-03-29T14:12:47.084Z,0.80
2023-03-29T14:15:21.709Z,0.70
2023-03-29T14:17:58.984Z,0.70
2023-03-29T14:20:27.752Z,0.90
2023-03-29T14:23:09.423Z,0.60
2023-03-29T14:25:38.955Z,0.90
2023-03-29T14:28:25.955Z,0.80
2023-03-29T14:30:53.723Z,0.50
2023-03-29T14:33:34.665Z,0.60
2023-03-29T14:36:04.291Z,0.80
2023-03-29T14:38:31.920Z,0.70
2023-03-29T14:40:59.150Z,1.10
2023-03-29T14:43:31.514Z,0.60
2023-03-29T14:45:59.050Z,0.60
2023-03-29T14:48:28.063Z,0.80
2023-03-29T14:50:54.904Z,0.70
2023-03-29T14:53:22.745Z,0.90
2023-03-29T14:55:52.372Z,0.70
2023-03-29T14:58:22.251Z,1.00
2023-03-29T15:00:52.477Z,0.80
2023-03-29T15:03:27.264Z,0.80
2023-03-29T15:06:01.866Z,0.70
2023-03-29T15:08:32.370Z,0.60
2023-03-29T15:11:01.893Z,0.50
2023-03-29T15:13:28.951Z,0.90
2023-03-29T15:16:01.807Z,0.90
2023-03-29T15:18:35.204Z,0.80
2023-03-29T15:21:02.328Z,0.90
2023-03-29T15:23:38.199Z,0.90
2023-03-29T15:26:19.428Z,0.90
2023-03-29T15:29:00.579Z,0.70
2023-03-29T15:31:34.943Z,0.90
2023-03-29T15:34:12.747Z,0.90
2023-03-29T15:36:45.451Z,0.70
2023-03-29T15:39:13.855Z,0.80
2023-03-29T15:41:41.601Z,0.90
2023-03-29T15:44:08.650Z,0.90
2023-03-29T15:46:35.748Z,0.80
2023-03-29T15:49:04.083Z,0.80
2023-03-29T15:51:31.661Z,1.40
2023-03-29T15:53:58.437Z,0.80
2023-03-29T15:56:26.763Z,0.80
2023-03-29T15:58:55.410Z,0.90
2023-03-29T16:01:41.940Z,0.80
2023-03-29T16:04:16.347Z,1.00
2023-03-29T16:06:44.902Z,1.00
2023-03-29T16:09:14.676Z,0.90
2023-03-29T16:11:42.638Z,1.30
2023-03-29T16:14:25.100Z,1.00
2023-03-29T16:16:52.552Z,0.90
2023-03-29T16:19:23.427Z,0.80
2023-03-29T16:21:50.997Z,0.70
2023-03-29T16:31:57.449Z,0.90
2023-03-29T16:34:24.642Z,0.80
2023-03-29T16:36:53.096Z,1.10
2023-03-29T16:39:20.544Z,0.90
2023-03-29T16:41:49.220Z,1.00
2023-03-29T16:44:17.171Z,0.80
2023-03-29T16:46:44.841Z,0.80
2023-03-29T16:49:14.011Z,0.80
2023-03-29T16:51:41.245Z,1.00
2023-03-29T16:54:09.371Z,1.10
2023-03-29T16:56:36.828Z,1.00
2023-03-29T16:59:03.826Z,0.90
2023-03-29T17:01:31.802Z,1.00
2023-03-29T17:03:58.854Z,0.90
2023-03-29T17:06:26.892Z,0.90
2023-03-29T17:08:53.850Z,0.80
2023-03-29T17:11:23.498Z,1.00
2023-03-29T17:13:52.453Z,0.90
2023-03-29T17:16:19.501Z,1.10
2023-03-29T17:18:47.476Z,1.10
2023-03-29T17:21:14.283Z,1.00
2023-03-29T17:23:41.960Z,1.00
2023-03-29T17:26:09.064Z,0.90
2023-03-29T17:28:36.316Z,0.90
2023-03-29T17:31:07.297Z,1.10
2023-03-29T17:33:36.162Z,1.00
2023-03-29T17:36:04.336Z,1.30
2023-03-29T17:38:34.334Z,0.90
2023-03-29T17:41:02.835Z,1.00
2023-03-29T17:43:30.515Z,1.00
2023-03-29T17:45:57.524Z,1.10
2023-03-29T17:48:24.743Z,1.00
2023-03-29T17:50:52.701Z,1.40
2023-03-29T18:01:10.183Z,0.90
2023-03-29T18:03:38.457Z,0.90
2023-03-29T18:06:06.451Z,1.10
2023-03-29T18:08:33.669Z,1.20
2023-03-29T18:11:09.831Z,0.80
2023-03-29T18:13:38.393Z,1.10
2023-03-29T18:16:09.067Z,0.70
2023-03-29T18:18:36.911Z,1.00
2023-03-29T18:21:03.956Z,1.00
2023-03-29T18:23:30.911Z,1.00
2023-03-29T18:26:02.907Z,1.00
2023-03-29T18:28:31.432Z,1.00
2023-03-29T18:30:58.496Z,1.20
2023-03-29T18:33:30.198Z,1.00
2023-03-29T18:35:57.483Z,1.00
2023-03-29T18:38:25.698Z,1.00
2023-03-29T18:40:52.635Z,1.10
2023-03-29T18:43:19.518Z,1.20
2023-03-29T18:45:47.588Z,1.00
2023-03-29T18:48:15.525Z,1.00
2023-03-29T18:50:44.903Z,0.90
2023-03-29T18:53:16.668Z,1.10
2023-03-29T18:55:45.590Z,1.10
2023-03-29T18:58:13.534Z,1.10
2023-03-29T19:00:41.339Z,1.00
2023-03-29T19:03:16.840Z,1.00
2023-03-29T19:05:43.878Z,1.20
2023-03-29T19:08:10.661Z,1.20
2023-03-29T19:10:38.497Z,1.10
2023-03-29T19:13:06.138Z,1.10
2023-03-29T19:15:34.685Z,1.00
2023-03-29T19:18:02.153Z,1.20
2023-03-29T19:20:29.969Z,1.20
2023-03-29T19:22:57.153Z,1.00
2023-03-29T19:25:23.876Z,1.00
2023-03-29T19:27:50.833Z,1.00
2023-03-29T19:30:18.333Z,1.10
2023-03-29T19:32:45.862Z,1.00
2023-03-29T19:35:13.284Z,1.00
2023-03-29T19:37:40.479Z,1.20
2023-03-29T19:40:10.920Z,1.10
2023-03-29T19:42:38.763Z,1.10
2023-03-29T19:45:07.589Z,1.00
2023-03-29T19:47:34.582Z,0.70
2023-03-29T19:50:01.358Z,1.00
2023-03-29T19:52:28.418Z,0.90
2023-03-29T19:54:56.045Z,1.00
2023-03-29T19:57:23.875Z,1.00
2023-03-29T19:59:53.219Z,1.60
2023-03-29T20:02:23.666Z,1.00
2023-03-29T20:04:52.827Z,0.90
2023-03-29T20:07:19.725Z,1.00
2023-03-29T20:09:47.425Z,1.00
2023-03-29T20:12:14.918Z,1.20
2023-03-29T20:14:43.248Z,0.90
2023-03-29T20:17:10.204Z,1.10
2023-03-29T20:19:36.975Z,0.90
2023-03-29T20:22:04.136Z,1.30
2023-03-29T20:24:32.768Z,0.90
2023-03-29T20:26:59.605Z,0.90
2023-03-29T20:29:27.662Z,1.10
2023-03-29T20:31:54.716Z,1.10
2023-03-29T20:34:22.220Z,1.10
2023-03-29T20:36:48.973Z,1.00
2023-03-29T20:39:18.363Z,1.30
2023-03-29T20:41:47.743Z,1.00
2023-03-29T20:44:16.652Z,1.10
2023-03-29T20:46:46.533Z,1.00
2023-03-29T20:49:13.298Z,1.00
2023-03-29T20:51:42.870Z,0.90
2023-03-29T20:54:10.683Z,1.00
2023-03-29T20:56:39.895Z,1.10
2023-03-29T20:59:10.506Z,1.00
2023-03-29T21:01:40.841Z,1.00
2023-03-29T21:04:09.220Z,1.10
2023-03-29T21:06:39.477Z,1.20
2023-03-29T21:09:06.335Z,1.20
2023-03-29T21:11:33.810Z,0.90
2023-03-29T21:14:02.579Z,1.10
2023-03-29T21:16:29.708Z,1.00
2023-03-29T21:18:56.650Z,0.90
2023-03-29T21:21:23.452Z,1.00
2023-03-29T21:23:50.496Z,1.10
2023-03-29T21:26:17.620Z,1.10
2023-03-29T21:28:44.696Z,1.20
2023-03-29T21:31:11.876Z,1.20
2023-03-29T21:33:39.499Z,1.20
2023-03-29T21:36:06.605Z,1.10
2023-03-29T21:38:33.890Z,1.10
2023-03-29T21:41:02.456Z,1.40
2023-03-29T21:43:29.607Z,1.30
2023-03-29T21:45:57.854Z,1.10
2023-03-29T21:48:24.669Z,1.20
2023-03-29T21:50:51.695Z,1.10
2023-03-29T21:53:18.632Z,1.80
2023-03-29T21:55:48.837Z,2.60
2023-03-29T21:58:16.136Z,2.00
2023-03-29T22:00:43.092Z,2.00
2023-03-29T22:03:11.723Z,1.90
2023-03-29T22:05:38.554Z,1.60
2023-03-29T22:08:06.742Z,1.50
2023-03-29T22:10:34.370Z,1.50
2023-03-29T22:13:03.409Z,1.50
2023-03-29T22:15:35.518Z,1.30
2023-03-29T22:18:03.683Z,1.60
2023-03-29T22:20:35.625Z,1.30
2023-03-29T22:23:03.485Z,1.50
2023-03-29T22:25:30.553Z,1.90
2023-03-29T22:27:57.968Z,1.60
2023-03-29T22:30:24.732Z,1.80
2023-03-29T22:32:51.935Z,1.60
2023-03-29T22:35:18.634Z,1.60
2023-03-29T22:37:45.614Z,1.60
2023-03-29T22:40:13.517Z,1.50
2023-03-29T22:42:40.284Z,1.40
2023-03-29T22:45:07.635Z,1.50
2023-03-29T22:47:35.352Z,1.60
2023-03-29T22:50:02.110Z,1.50
2023-03-29T22:52:29.061Z,1.70
2023-03-29T22:54:55.956Z,1.50
2023-03-29T22:57:23.120Z,1.80
2023-03-29T22:59:49.916Z,1.40
2023-03-29T23:02:16.669Z,1.70
2023-03-29T23:04:45.475Z,1.70
2023-03-29T23:07:13.288Z,1.70
2023-03-29T23:09:40.068Z,1.60
2023-03-29T23:12:07.163Z,1.60
2023-03-29T23:14:34.014Z,1.50
2023-03-29T23:17:00.922Z,1.70
2023-03-29T23:19:28.067Z,1.40
2023-03-29T23:21:55.128Z,1.20
2023-03-29T23:24:22.903Z,1.50
2023-03-29T23:26:49.591Z,1.20
2023-03-29T23:29:16.462Z,1.30
2023-03-29T23:31:44.319Z,1.40
2023-03-29T23:34:11.110Z,1.50
2023-03-29T23:36:37.999Z,1.40
2023-03-29T23:39:07.920Z,1.40
2023-03-29T23:41:36.148Z,1.20
2023-03-29T23:44:04.441Z,1.50
2023-03-29T23:46:32.477Z,1.70
2023-03-29T23:48:59.205Z,1.30
2023-03-29T23:51:28.386Z,1.20
2023-03-29T23:53:55.737Z,1.70
2023-03-29T23:56:28.369Z,1.10
2023-03-29T23:58:55.257Z,1.20
